createdAt,value
2023-05-02T00:00:56.217Z,99573.00
2023-05-02T00:02:29.631Z,99568.00
2023-05-02T00:04:03.452Z,99566.00
2023-05-02T00:05:35.664Z,99564.00
2023-05-02T00:07:09.088Z,99557.00
2023-05-02T00:08:42.227Z,99565.00
2023-05-02T00:10:15.363Z,99563.00
2023-05-02T00:11:49.769Z,99556.00
2023-05-02T00:13:22.849Z,99562.00
2023-05-02T00:14:56.077Z,99555.00
2023-05-02T00:16:29.488Z,99565.00
2023-05-02T00:18:02.673Z,99567.00
2023-05-02T00:19:39.990Z,99569.00
2023-05-02T00:21:14.107Z,99567.00
2023-05-02T00:22:47.283Z,99574.00
2023-05-02T00:24:20.471Z,99570.00
2023-05-02T00:25:53.914Z,99567.00
2023-05-02T00:27:28.413Z,99571.00
2023-05-02T00:29:01.639Z,99568.00
2023-05-02T00:30:34.780Z,99564.00
2023-05-02T00:32:08.229Z,99562.00
2023-05-02T00:33:41.479Z,99567.00
2023-05-02T00:35:13.702Z,99577.00
2023-05-02T00:36:46.868Z,99554.00
2023-05-02T00:38:19.965Z,99574.00
2023-05-02T00:39:52.022Z,99574.00
2023-05-02T00:41:25.314Z,99574.00
2023-05-02T00:42:58.894Z,99584.00
2023-05-02T00:44:32.577Z,99571.00
2023-05-02T00:46:06.388Z,99586.00
2023-05-02T00:47:39.940Z,99583.00
2023-05-02T00:49:13.233Z,99585.00
2023-05-02T00:50:46.495Z,99583.00
2023-05-02T00:52:20.737Z,99587.00
2023-05-02T00:53:53.615Z,99586.00
2023-05-02T00:55:27.268Z,99583.00
2023-05-02T00:57:00.593Z,99588.00
2023-05-02T00:58:35.428Z,99582.00
2023-05-02T01:00:19.935Z,99592.00
2023-05-02T01:02:06.460Z,99590.00
2023-05-02T01:03:51.945Z,99601.00
2023-05-02T01:05:39.722Z,99596.00
2023-05-02T01:07:32.974Z,99597.00
2023-05-02T01:09:22.334Z,99592.00
2023-05-02T01:11:06.932Z,99592.00
2023-05-02T01:12:48.188Z,99602.00
2023-05-02T01:14:23.707Z,99590.00
2023-05-02T01:15:59.799Z,99597.00
2023-05-02T01:17:35.456Z,99597.00
2023-05-02T01:19:20.208Z,99604.00
2023-05-02T01:20:58.451Z,99597.00
2023-05-02T01:22:34.597Z,99600.00
2023-05-02T01:24:19.118Z,99597.00
2023-05-02T01:26:16.687Z,99598.00
2023-05-02T01:28:06.580Z,99592.00
2023-05-02T01:29:44.360Z,99594.00
2023-05-02T01:31:19.122Z,99598.00
2023-05-02T01:32:56.200Z,99598.00
2023-05-02T01:34:32.152Z,99605.00
2023-05-02T01:36:08.348Z,99604.00
2023-05-02T01:37:44.865Z,99620.00
2023-05-02T01:39:25.034Z,99609.00
2023-05-02T01:41:03.606Z,99614.00
2023-05-02T01:42:38.983Z,99605.00
2023-05-02T01:44:12.855Z,99610.00
2023-05-02T01:45:51.984Z,99613.00
2023-05-02T01:47:27.602Z,99601.00
2023-05-02T01:49:06.729Z,99610.00
2023-05-02T01:50:44.445Z,99608.00
2023-05-02T01:52:22.596Z,99613.00
2023-05-02T01:53:55.021Z,99603.00
2023-05-02T01:55:30.055Z,99613.00
2023-05-02T01:57:08.074Z,99614.00
2023-05-02T01:58:42.019Z,99618.00
2023-05-02T02:00:18.353Z,99627.00
2023-05-02T02:01:53.958Z,99621.00
2023-05-02T02:03:28.457Z,99623.00
2023-05-02T02:05:05.767Z,99625.00
2023-05-02T02:06:45.418Z,99630.00
2023-05-02T02:08:18.750Z,99630.00
2023-05-02T02:09:52.804Z,99627.00
2023-05-02T02:11:29.478Z,99630.00
2023-05-02T02:13:14.195Z,99633.00
2023-05-02T02:14:56.177Z,99633.00
2023-05-02T02:16:34.937Z,99639.00
2023-05-02T02:18:15.868Z,99635.00
2023-05-02T02:19:54.494Z,99641.00
2023-05-02T02:21:31.929Z,99640.00
2023-05-02T02:23:09.240Z,99645.00
2023-05-02T02:24:43.932Z,99629.00
2023-05-02T02:26:20.877Z,99644.00
2023-05-02T02:27:55.077Z,99637.00
2023-05-02T02:29:28.424Z,99652.00
2023-05-02T02:31:02.235Z,99643.00
2023-05-02T02:32:35.545Z,99643.00
2023-05-02T02:34:10.209Z,99642.00
2023-05-02T02:35:50.407Z,99647.00
2023-05-02T02:37:32.090Z,99642.00
2023-05-02T02:39:22.425Z,99650.00
2023-05-02T02:41:07.483Z,99649.00
2023-05-02T02:42:50.000Z,99650.00
2023-05-02T02:44:40.881Z,99653.00
2023-05-02T02:46:30.444Z,99655.00
2023-05-02T02:48:20.431Z,99656.00
2023-05-02T02:50:12.433Z,99660.00
2023-05-02T02:51:54.314Z,99654.00
2023-05-02T02:53:48.224Z,99657.00
2023-05-02T02:55:36.625Z,99660.00
2023-05-02T02:57:19.581Z,99663.00
2023-05-02T02:59:04.315Z,99660.00
2023-05-02T03:00:38.906Z,99665.00
2023-05-02T03:02:18.384Z,99671.00
2023-05-02T03:03:54.480Z,99663.00
2023-05-02T03:05:30.654Z,99672.00
2023-05-02T03:07:04.073Z,99669.00
2023-05-02T03:08:41.161Z,99679.00
2023-05-02T03:10:16.436Z,99678.00
2023-05-02T03:11:49.564Z,99682.00
2023-05-02T03:13:23.277Z,99686.00
2023-05-02T03:15:12.052Z,99681.00
2023-05-02T03:16:45.678Z,99678.00
2023-05-02T03:18:21.707Z,99687.00
2023-05-02T03:19:54.846Z,99696.00
2023-05-02T03:21:31.406Z,99691.00
2023-05-02T03:23:08.252Z,99696.00
2023-05-02T03:24:41.680Z,99686.00
2023-05-02T03:26:16.055Z,99700.00
2023-05-02T03:27:49.466Z,99705.00
2023-05-02T03:29:23.006Z,99702.00
2023-05-02T03:30:55.494Z,99695.00
2023-05-02T03:32:28.815Z,99700.00
2023-05-02T03:34:02.148Z,99692.00
2023-05-02T03:35:35.686Z,99695.00
2023-05-02T03:37:10.337Z,99698.00
2023-05-02T03:38:44.181Z,99687.00
2023-05-02T03:40:21.606Z,99701.00
2023-05-02T03:41:54.974Z,99703.00
2023-05-02T03:43:29.552Z,99708.00
2023-05-02T03:45:03.208Z,99706.00
2023-05-02T03:46:37.632Z,99714.00
2023-05-02T03:48:14.325Z,99712.00
2023-05-02T03:49:47.705Z,99708.00
2023-05-02T03:51:21.710Z,99715.00
2023-05-02T03:52:59.608Z,99714.00
2023-05-02T03:54:43.617Z,99709.00
2023-05-02T03:56:20.726Z,99715.00
2023-05-02T03:58:02.618Z,99711.00
2023-05-02T03:59:36.000Z,99721.00
2023-05-02T04:01:18.639Z,99716.00
2023-05-02T04:02:55.113Z,99712.00
2023-05-02T04:04:33.176Z,99722.00
2023-05-02T04:06:06.821Z,99720.00
2023-05-02T04:07:39.988Z,99719.00
2023-05-02T04:09:15.253Z,99720.00
2023-05-02T04:10:55.386Z,99714.00
2023-05-02T04:12:30.821Z,99717.00
2023-05-02T04:14:04.229Z,99724.00
2023-05-02T04:15:37.381Z,99723.00
2023-05-02T04:17:11.236Z,99726.00
2023-05-02T04:18:51.496Z,99728.00
2023-05-02T04:20:25.899Z,99725.00
2023-05-02T04:21:59.878Z,99730.00
2023-05-02T04:23:34.208Z,99731.00
2023-05-02T04:25:10.495Z,99737.00
2023-05-02T04:26:47.458Z,99733.00
2023-05-02T04:28:21.702Z,99733.00
2023-05-02T04:29:55.868Z,99733.00
2023-05-02T04:31:29.424Z,99737.00
2023-05-02T04:33:02.730Z,99750.00
2023-05-02T04:34:39.523Z,99741.00
2023-05-02T04:36:12.876Z,99737.00
2023-05-02T04:37:49.117Z,99752.00
2023-05-02T04:39:23.238Z,99741.00
2023-05-02T04:41:24.011Z,99756.00
2023-05-02T04:43:03.356Z,99755.00
2023-05-02T04:44:49.853Z,99758.00
2023-05-02T04:46:23.440Z,99750.00
2023-05-02T04:47:57.050Z,99756.00
2023-05-02T04:49:30.233Z,99752.00
2023-05-02T04:51:03.437Z,99760.00
2023-05-02T04:52:37.496Z,99760.00
2023-05-02T04:54:11.285Z,99763.00
2023-05-02T04:55:44.780Z,99763.00
2023-05-02T04:57:20.886Z,99766.00
2023-05-02T04:58:59.260Z,99775.00
2023-05-02T05:00:32.542Z,99773.00
2023-05-02T05:02:07.957Z,99784.00
2023-05-02T05:03:42.289Z,99776.00
2023-05-02T05:05:16.421Z,99783.00
2023-05-02T05:06:49.661Z,99781.00
2023-05-02T05:08:24.097Z,99782.00
2023-05-02T05:09:57.274Z,99779.00
2023-05-02T05:11:33.309Z,99790.00
2023-05-02T05:13:07.934Z,99793.00
2023-05-02T05:14:41.225Z,99801.00
2023-05-02T05:16:14.652Z,99802.00
2023-05-02T05:17:48.579Z,99805.00
2023-05-02T05:19:21.721Z,99801.00
2023-05-02T05:20:54.918Z,99811.00
2023-05-02T05:22:28.106Z,99806.00
2023-05-02T05:24:02.255Z,99806.00
2023-05-02T05:25:35.787Z,99812.00
2023-05-02T05:27:09.629Z,99813.00
2023-05-02T05:28:45.120Z,99807.00
2023-05-02T05:30:19.374Z,99822.00
2023-05-02T05:31:52.834Z,99818.00
2023-05-02T05:33:27.405Z,99823.00
2023-05-02T05:35:00.812Z,99821.00
2023-05-02T05:36:34.745Z,99822.00
2023-05-02T05:38:09.315Z,99835.00
2023-05-02T05:39:44.235Z,99828.00
2023-05-02T05:41:18.113Z,99831.00
2023-05-02T05:42:54.574Z,99836.00
2023-05-02T05:44:34.101Z,99839.00
2023-05-02T05:46:07.432Z,99838.00
2023-05-02T05:47:42.498Z,99837.00
2023-05-02T05:49:18.247Z,99845.00
2023-05-02T05:50:52.588Z,99839.00
2023-05-02T05:52:25.973Z,99842.00
2023-05-02T05:54:01.021Z,99845.00
2023-05-02T05:55:37.225Z,99850.00
2023-05-02T05:57:10.778Z,99847.00
2023-05-02T05:58:44.361Z,99846.00
2023-05-02T06:00:21.306Z,99848.00
2023-05-02T06:01:58.497Z,99846.00
2023-05-02T06:03:32.014Z,99858.00
2023-05-02T06:05:06.059Z,99856.00
2023-05-02T06:06:39.263Z,99855.00
2023-05-02T06:08:12.413Z,99858.00
2023-05-02T06:09:45.521Z,99862.00
2023-05-02T06:11:19.382Z,99867.00
2023-05-02T06:12:52.492Z,99867.00
2023-05-02T06:14:30.062Z,99861.00
2023-05-02T06:16:05.186Z,99867.00
2023-05-02T06:17:38.409Z,99869.00
2023-05-02T06:19:11.523Z,99872.00
2023-05-02T06:20:45.811Z,99878.00
2023-05-02T06:22:18.965Z,99876.00
2023-05-02T06:23:52.128Z,99884.00
2023-05-02T06:25:25.248Z,99880.00
2023-05-02T06:26:59.422Z,99883.00
2023-05-02T06:28:33.419Z,99880.00
2023-05-02T06:30:09.041Z,99881.00
2023-05-02T06:31:43.454Z,99874.00
2023-05-02T06:33:16.626Z,99882.00
2023-05-02T06:34:49.771Z,99883.00
2023-05-02T06:36:23.420Z,99894.00
2023-05-02T06:37:56.511Z,99895.00
2023-05-02T06:39:29.933Z,99903.00
2023-05-02T06:41:03.105Z,99893.00
2023-05-02T06:42:36.226Z,99899.00
2023-05-02T06:44:09.288Z,99902.00
2023-05-02T06:45:42.922Z,99909.00
2023-05-02T06:47:17.400Z,99918.00
2023-05-02T06:48:51.387Z,99915.00
2023-05-02T06:50:24.697Z,99918.00
2023-05-02T06:51:57.816Z,99922.00
2023-05-02T06:53:32.921Z,99924.00
2023-05-02T06:55:08.206Z,99928.00
2023-05-02T06:56:41.595Z,99928.00
2023-05-02T06:58:14.857Z,99933.00
2023-05-02T06:59:47.930Z,99932.00
2023-05-02T07:01:21.130Z,99930.00
2023-05-02T07:02:56.295Z,99933.00
2023-05-02T07:04:29.553Z,99941.00
2023-05-02T07:06:02.748Z,99947.00
2023-05-02T07:07:35.900Z,99953.00
2023-05-02T07:09:08.991Z,99959.00
2023-05-02T07:10:42.013Z,99957.00
2023-05-02T07:12:15.187Z,99959.00
2023-05-02T07:13:48.283Z,99960.00
2023-05-02T07:15:21.309Z,99960.00
2023-05-02T07:16:55.155Z,99963.00
2023-05-02T07:18:29.742Z,99970.00
2023-05-02T07:20:03.978Z,99971.00
2023-05-02T07:21:37.273Z,99968.00
2023-05-02T07:23:10.454Z,99970.00
2023-05-02T07:24:44.074Z,99977.00
2023-05-02T07:26:18.838Z,99968.00
2023-05-02T07:27:51.952Z,99975.00
2023-05-02T07:29:25.184Z,99972.00
2023-05-02T07:30:58.584Z,99979.00
2023-05-02T07:32:32.982Z,99984.00
2023-05-02T07:34:07.606Z,99988.00
2023-05-02T07:35:40.691Z,99992.00
2023-05-02T07:37:20.104Z,99991.00
2023-05-02T07:39:08.279Z,99990.00
2023-05-02T07:40:41.708Z,99996.00
2023-05-02T07:42:14.916Z,99995.00
2023-05-02T07:43:47.999Z,99990.00
2023-05-02T07:45:21.391Z,99995.00
2023-05-02T07:46:55.227Z,99997.00
2023-05-02T07:48:28.530Z,100005.00
2023-05-02T07:50:04.499Z,100005.00
2023-05-02T07:51:39.758Z,99996.00
2023-05-02T07:53:12.883Z,100005.00
2023-05-02T07:54:45.993Z,100004.00
2023-05-02T07:56:19.037Z,100006.00
2023-05-02T07:57:52.191Z,100007.00
2023-05-02T07:59:25.353Z,100007.00
2023-05-02T08:00:59.014Z,100006.00
2023-05-02T08:02:32.246Z,100009.00
2023-05-02T08:04:06.251Z,100003.00
2023-05-02T08:05:40.790Z,100005.00
2023-05-02T08:07:13.883Z,100011.00
2023-05-02T08:08:46.956Z,100014.00
2023-05-02T08:10:20.235Z,100020.00
2023-05-02T08:11:53.402Z,100022.00
2023-05-02T08:13:27.112Z,100019.00
2023-05-02T08:15:00.238Z,100022.00
2023-05-02T08:16:33.476Z,100025.00
2023-05-02T08:18:07.217Z,100026.00
2023-05-02T08:19:40.426Z,100024.00
2023-05-02T08:21:15.233Z,100028.00
2023-05-02T08:22:48.184Z,100024.00
2023-05-02T08:24:21.356Z,100032.00
2023-05-02T08:25:55.441Z,100029.00
2023-05-02T08:27:28.846Z,100021.00
2023-05-02T08:29:04.267Z,100028.00
2023-05-02T08:30:37.439Z,100029.00
2023-05-02T08:32:10.650Z,100025.00
2023-05-02T08:33:44.625Z,100036.00
2023-05-02T08:35:17.973Z,100036.00
2023-05-02T08:36:52.361Z,100040.00
2023-05-02T08:38:25.824Z,100041.00
2023-05-02T08:39:59.100Z,100032.00
2023-05-02T08:41:32.668Z,100050.00
2023-05-02T08:43:06.982Z,100047.00
2023-05-02T08:44:40.134Z,100046.00
2023-05-02T08:46:16.599Z,100048.00
2023-05-02T08:47:51.905Z,100048.00
2023-05-02T08:49:28.621Z,100067.00
2023-05-02T08:51:03.551Z,100061.00
2023-05-02T08:52:38.810Z,100057.00
2023-05-02T08:54:12.435Z,100060.00
2023-05-02T08:55:46.300Z,100069.00
2023-05-02T08:57:19.519Z,100074.00
2023-05-02T08:58:52.615Z,100077.00
2023-05-02T09:00:26.017Z,100090.00
2023-05-02T09:02:08.606Z,100094.00
2023-05-02T09:03:44.580Z,100103.00
2023-05-02T09:05:21.742Z,100100.00
2023-05-02T09:06:54.862Z,100112.00
2023-05-02T09:08:29.326Z,100122.00
2023-05-02T09:10:02.866Z,100121.00
2023-05-02T09:11:36.097Z,100124.00
2023-05-02T09:13:34.471Z,100127.00
2023-05-02T09:15:12.411Z,100139.00
2023-05-02T09:16:46.433Z,100140.00
2023-05-02T09:18:23.260Z,100143.00
2023-05-02T09:20:02.001Z,100139.00
2023-05-02T09:21:39.954Z,100141.00
2023-05-02T09:23:13.886Z,100148.00
2023-05-02T09:24:55.822Z,100143.00
2023-05-02T09:26:32.155Z,100150.00
2023-05-02T09:28:05.664Z,100155.00
2023-05-02T09:29:40.714Z,100159.00
2023-05-02T09:31:22.908Z,100158.00
2023-05-02T09:33:05.173Z,100158.00
2023-05-02T09:34:39.248Z,100162.00
2023-05-02T09:36:15.728Z,100168.00
2023-05-02T09:37:48.913Z,100163.00
2023-05-02T09:39:26.059Z,100162.00
2023-05-02T09:41:03.408Z,100164.00
2023-05-02T09:42:37.116Z,100168.00
2023-05-02T09:44:12.482Z,100164.00
2023-05-02T09:45:59.281Z,100162.00
2023-05-02T09:47:32.686Z,100184.00
2023-05-02T09:49:05.806Z,100173.00
2023-05-02T09:50:39.769Z,100178.00
2023-05-02T09:52:14.256Z,100176.00
2023-05-02T09:53:47.972Z,100179.00
2023-05-02T09:55:24.016Z,100189.00
2023-05-02T09:56:58.852Z,100189.00
2023-05-02T09:58:32.614Z,100192.00
2023-05-02T10:00:08.861Z,100201.00
2023-05-02T10:01:46.381Z,100196.00
2023-05-02T10:03:20.907Z,100203.00
2023-05-02T10:04:57.986Z,100196.00
2023-05-02T10:06:33.449Z,100199.00
2023-05-02T10:08:09.972Z,100200.00
2023-05-02T10:09:46.131Z,100209.00
2023-05-02T10:11:19.481Z,100206.00
2023-05-02T10:12:55.242Z,100212.00
2023-05-02T10:14:29.789Z,100211.00
2023-05-02T10:16:05.665Z,100207.00
2023-05-02T10:17:49.442Z,100210.00
2023-05-02T10:19:30.618Z,100209.00
2023-05-02T10:21:13.039Z,100198.00
2023-05-02T10:22:48.703Z,100201.00
2023-05-02T10:24:22.646Z,100200.00
2023-05-02T10:25:58.111Z,100207.00
2023-05-02T10:27:33.304Z,100205.00
2023-05-02T10:29:07.841Z,100201.00
2023-05-02T10:30:42.551Z,100207.00
2023-05-02T10:32:18.123Z,100203.00
2023-05-02T10:33:52.934Z,100207.00
2023-05-02T10:35:27.127Z,100209.00
2023-05-02T10:37:02.083Z,100206.00
2023-05-02T10:38:36.652Z,100205.00
2023-05-02T10:40:13.682Z,100207.00
2023-05-02T10:41:47.369Z,100207.00
2023-05-02T10:43:20.622Z,100212.00
2023-05-02T10:44:55.322Z,100209.00
2023-05-02T10:46:33.784Z,100208.00
2023-05-02T10:48:18.721Z,100215.00
2023-05-02T10:49:53.789Z,100215.00
2023-05-02T10:51:31.312Z,100224.00
2023-05-02T10:53:31.085Z,100227.00
2023-05-02T10:55:22.059Z,100224.00
2023-05-02T10:57:09.285Z,100228.00
2023-05-02T10:58:43.086Z,100212.00
2023-05-02T11:00:25.624Z,100223.00
2023-05-02T11:01:59.148Z,100224.00
2023-05-02T11:03:57.125Z,100224.00
2023-05-02T11:05:30.383Z,100224.00
2023-05-02T11:07:20.110Z,100236.00
2023-05-02T11:08:53.352Z,100229.00
2023-05-02T11:10:28.324Z,100225.00
2023-05-02T11:12:04.824Z,100235.00
2023-05-02T11:13:51.065Z,100237.00
2023-05-02T11:16:00.170Z,100232.00
2023-05-02T11:18:03.088Z,100235.00
2023-05-02T11:20:27.893Z,100238.00
2023-05-02T11:22:44.906Z,100239.00
2023-05-02T11:24:40.671Z,100244.00
2023-05-02T11:26:23.206Z,100238.00
2023-05-02T11:27:56.224Z,100233.00
2023-05-02T11:29:54.815Z,100241.00
2023-05-02T11:31:55.825Z,100234.00
2023-05-02T11:33:30.634Z,100237.00
2023-05-02T11:35:04.314Z,100243.00
2023-05-02T11:36:38.005Z,100238.00
2023-05-02T11:38:14.926Z,100238.00
2023-05-02T11:39:48.332Z,100238.00
2023-05-02T11:41:21.887Z,100237.00
2023-05-02T11:42:55.720Z,100248.00
2023-05-02T11:44:29.037Z,100236.00
2023-05-02T11:46:04.963Z,100246.00
2023-05-02T11:47:40.028Z,100245.00
2023-05-02T11:49:15.140Z,100253.00
2023-05-02T11:50:51.491Z,100243.00
2023-05-02T11:52:25.555Z,100248.00
2023-05-02T11:53:58.836Z,100253.00
2023-05-02T11:55:31.972Z,100248.00
2023-05-02T11:57:05.242Z,100245.00
2023-05-02T11:58:38.322Z,100245.00
2023-05-02T12:00:13.093Z,100242.00
2023-05-02T12:01:50.110Z,100254.00
2023-05-02T12:03:30.121Z,100252.00
2023-05-02T12:05:05.870Z,100257.00
2023-05-02T12:06:39.793Z,100249.00
2023-05-02T12:08:20.258Z,100258.00
2023-05-02T12:09:55.802Z,100259.00
2023-05-02T12:11:30.946Z,100257.00
2023-05-02T12:13:07.327Z,100262.00
2023-05-02T12:14:41.539Z,100261.00
2023-05-02T12:16:15.314Z,100262.00
2023-05-02T12:17:52.112Z,100263.00
2023-05-02T12:19:27.678Z,100262.00
2023-05-02T12:21:01.272Z,100263.00
2023-05-02T12:22:34.950Z,100265.00
2023-05-02T12:24:09.048Z,100267.00
2023-05-02T12:25:44.147Z,100263.00
2023-05-02T12:27:18.366Z,100263.00
2023-05-02T12:28:54.453Z,100257.00
2023-05-02T12:30:28.049Z,100260.00
2023-05-02T12:32:01.797Z,100261.00
2023-05-02T12:33:43.754Z,100261.00
2023-05-02T12:35:24.064Z,100259.00
2023-05-02T12:36:57.596Z,100258.00
2023-05-02T12:38:31.039Z,100260.00
2023-05-02T12:40:05.062Z,100260.00
2023-05-02T12:41:43.584Z,100258.00
2023-05-02T12:43:17.467Z,100263.00
2023-05-02T12:44:53.218Z,100263.00
2023-05-02T12:46:28.170Z,100265.00
2023-05-02T12:48:02.509Z,100261.00
2023-05-02T12:49:50.403Z,100266.00
2023-05-02T12:51:25.142Z,100262.00
2023-05-02T12:52:59.863Z,100268.00
2023-05-02T12:54:32.836Z,100265.00
2023-05-02T12:56:07.524Z,100256.00
2023-05-02T12:57:41.703Z,100267.00
2023-05-02T12:59:28.001Z,100264.00
2023-05-02T13:01:01.095Z,100267.00
2023-05-02T13:02:34.577Z,100271.00
2023-05-02T13:04:07.741Z,100268.00
2023-05-02T13:05:40.807Z,100267.00
2023-05-02T13:07:15.334Z,100283.00
2023-05-02T13:08:48.577Z,100285.00
2023-05-02T13:10:22.040Z,100281.00
2023-05-02T13:11:55.100Z,100285.00
2023-05-02T13:13:28.318Z,100284.00
2023-05-02T13:15:01.361Z,100286.00
2023-05-02T13:16:36.617Z,100282.00
2023-05-02T13:18:10.208Z,100285.00
2023-05-02T13:19:50.492Z,100302.00
2023-05-02T13:21:31.552Z,100304.00
2023-05-02T13:23:06.062Z,100294.00
2023-05-02T13:24:39.181Z,100300.00
2023-05-02T13:26:12.759Z,100292.00
2023-05-02T13:27:45.984Z,100295.00
2023-05-02T13:29:19.608Z,100302.00
2023-05-02T13:30:52.790Z,100288.00
2023-05-02T13:32:26.050Z,100294.00
2023-05-02T13:33:59.186Z,100297.00
2023-05-02T13:35:33.482Z,100293.00
2023-05-02T13:37:08.401Z,100302.00
2023-05-02T13:38:42.876Z,100302.00
2023-05-02T13:40:16.258Z,100296.00
2023-05-02T13:41:49.618Z,100302.00
2023-05-02T13:43:22.783Z,100294.00
2023-05-02T13:44:56.231Z,100297.00
2023-05-02T13:46:29.393Z,100304.00
2023-05-02T13:48:05.646Z,100300.00
2023-05-02T13:49:38.817Z,100296.00
2023-05-02T13:51:12.047Z,100292.00
2023-05-02T13:52:47.699Z,100298.00
2023-05-02T13:54:23.555Z,100296.00
2023-05-02T13:55:56.692Z,100296.00
2023-05-02T13:57:29.820Z,100293.00
2023-05-02T13:59:03.680Z,100300.00
2023-05-02T14:00:38.128Z,100295.00
2023-05-02T14:02:11.496Z,100303.00
2023-05-02T14:03:44.734Z,100304.00
2023-05-02T14:05:17.911Z,100298.00
2023-05-02T14:06:51.403Z,100301.00
2023-05-02T14:08:24.878Z,100298.00
2023-05-02T14:09:59.564Z,100296.00
2023-05-02T14:11:32.680Z,100301.00
2023-05-02T14:13:06.037Z,100303.00
2023-05-02T14:14:39.131Z,100306.00
2023-05-02T14:16:12.301Z,100302.00
2023-05-02T14:17:45.480Z,100299.00
2023-05-02T14:19:18.974Z,100294.00
2023-05-02T14:20:52.091Z,100298.00
2023-05-02T14:22:25.351Z,100296.00
2023-05-02T14:23:58.715Z,100289.00
2023-05-02T14:25:33.502Z,100302.00
2023-05-02T14:27:07.598Z,100297.00
2023-05-02T14:28:40.863Z,100302.00
2023-05-02T14:30:14.282Z,100301.00
2023-05-02T14:31:47.611Z,100298.00
2023-05-02T14:33:21.004Z,100303.00
2023-05-02T14:34:54.150Z,100296.00
2023-05-02T14:36:27.260Z,100293.00
2023-05-02T14:38:01.084Z,100293.00
2023-05-02T14:39:34.177Z,100291.00
2023-05-02T14:41:08.798Z,100296.00
2023-05-02T14:42:42.158Z,100295.00
2023-05-02T14:44:15.742Z,100294.00
2023-05-02T14:45:48.853Z,100299.00
2023-05-02T14:47:22.496Z,100293.00
2023-05-02T14:48:55.548Z,100306.00
2023-05-02T14:50:28.727Z,100305.00
2023-05-02T14:52:01.952Z,100302.00
2023-05-02T14:53:35.187Z,100303.00
2023-05-02T14:55:09.260Z,100294.00
2023-05-02T14:56:43.846Z,100294.00
2023-05-02T14:58:20.420Z,100286.00
2023-05-02T14:59:58.981Z,100296.00
2023-05-02T15:01:32.167Z,100300.00
2023-05-02T15:03:07.615Z,100295.00
2023-05-02T15:04:41.171Z,100295.00
2023-05-02T15:06:15.207Z,100290.00
2023-05-02T15:07:48.379Z,100292.00
2023-05-02T15:09:26.301Z,100289.00
2023-05-02T15:10:59.373Z,100280.00
2023-05-02T15:12:33.876Z,100286.00
2023-05-02T15:14:07.120Z,100292.00
2023-05-02T15:15:40.346Z,100288.00
2023-05-02T15:17:13.591Z,100288.00
2023-05-02T15:18:46.775Z,100278.00
2023-05-02T15:20:20.420Z,100280.00
2023-05-02T15:21:54.797Z,100285.00
2023-05-02T15:23:27.940Z,100279.00
2023-05-02T15:25:01.931Z,100287.00
2023-05-02T15:26:36.274Z,100284.00
2023-05-02T15:28:10.780Z,100286.00
2023-05-02T15:29:43.858Z,100290.00
2023-05-02T15:31:17.013Z,100288.00
2023-05-02T15:32:50.236Z,100294.00
2023-05-02T15:34:23.734Z,100293.00
2023-05-02T15:35:59.340Z,100288.00
2023-05-02T15:37:32.632Z,100291.00
2023-05-02T15:39:06.696Z,100293.00
2023-05-02T15:40:39.880Z,100288.00
2023-05-02T15:42:13.463Z,100295.00
2023-05-02T15:43:48.261Z,100289.00
2023-05-02T15:45:21.305Z,100297.00
2023-05-02T15:46:55.844Z,100287.00
2023-05-02T15:48:32.928Z,100287.00
2023-05-02T15:50:07.476Z,100291.00
2023-05-02T15:51:40.869Z,100294.00
2023-05-02T15:53:15.065Z,100281.00
2023-05-02T15:54:48.249Z,100285.00
2023-05-02T15:56:22.136Z,100286.00
2023-05-02T15:57:55.523Z,100287.00
2023-05-02T15:59:30.007Z,100290.00
2023-05-02T16:01:03.217Z,100305.00
2023-05-02T16:02:37.872Z,100298.00
2023-05-02T16:04:11.266Z,100303.00
2023-05-02T16:05:44.404Z,100306.00
2023-05-02T16:07:17.432Z,100310.00
2023-05-02T16:08:50.515Z,100303.00
2023-05-02T16:10:24.331Z,100305.00
2023-05-02T16:11:57.816Z,100299.00
2023-05-02T16:13:30.938Z,100305.00
2023-05-02T16:15:08.195Z,100306.00
2023-05-02T16:16:41.391Z,100304.00
2023-05-02T16:18:14.920Z,100303.00
2023-05-02T16:19:48.062Z,100304.00
2023-05-02T16:21:21.550Z,100315.00
2023-05-02T16:22:55.153Z,100313.00
2023-05-02T16:24:28.373Z,100310.00
2023-05-02T16:26:02.823Z,100311.00
2023-05-02T16:27:35.979Z,100317.00
2023-05-02T16:29:09.059Z,100322.00
2023-05-02T16:30:43.498Z,100321.00
2023-05-02T16:32:16.683Z,100322.00
2023-05-02T16:33:50.842Z,100319.00
2023-05-02T16:35:23.927Z,100313.00
2023-05-02T16:36:57.038Z,100322.00
2023-05-02T16:38:30.115Z,100322.00
2023-05-02T16:40:05.389Z,100320.00
2023-05-02T16:41:39.164Z,100326.00
2023-05-02T16:43:12.433Z,100335.00
2023-05-02T16:44:45.568Z,100331.00
2023-05-02T16:46:20.160Z,100334.00
2023-05-02T16:47:53.515Z,100340.00
2023-05-02T16:49:26.679Z,100332.00
2023-05-02T16:51:01.059Z,100341.00
2023-05-02T16:52:36.519Z,100338.00
2023-05-02T16:54:10.612Z,100333.00
2023-05-02T16:55:43.835Z,100324.00
2023-05-02T16:57:19.766Z,100340.00
2023-05-02T16:58:53.094Z,100342.00
2023-05-02T17:00:26.350Z,100339.00
2023-05-02T17:02:00.813Z,100355.00
2023-05-02T17:03:34.125Z,100354.00
2023-05-02T17:05:09.531Z,100353.00
2023-05-02T17:06:42.947Z,100354.00
2023-05-02T17:08:16.843Z,100354.00
2023-05-02T17:09:50.071Z,100364.00
2023-05-02T17:11:25.258Z,100359.00
2023-05-02T17:12:59.097Z,100361.00
2023-05-02T17:14:32.915Z,100363.00
2023-05-02T17:16:08.206Z,100354.00
2023-05-02T17:17:42.920Z,100358.00
2023-05-02T17:19:16.017Z,100361.00
2023-05-02T17:20:49.230Z,100354.00
2023-05-02T17:22:22.449Z,100346.00
2023-05-02T17:23:55.655Z,100345.00
2023-05-02T17:25:28.875Z,100345.00
2023-05-02T17:27:02.755Z,100342.00
2023-05-02T17:28:36.543Z,100345.00
2023-05-02T17:30:11.004Z,100350.00
2023-05-02T17:31:44.126Z,100351.00
2023-05-02T17:33:18.668Z,100350.00
2023-05-02T17:34:51.960Z,100353.00
2023-05-02T17:36:25.065Z,100357.00
2023-05-02T17:37:58.788Z,100356.00
2023-05-02T17:39:31.921Z,100358.00
2023-05-02T17:41:05.666Z,100351.00
2023-05-02T17:42:38.963Z,100358.00
2023-05-02T17:44:12.153Z,100350.00
2023-05-02T17:45:45.747Z,100349.00
2023-05-02T17:47:19.747Z,100358.00
2023-05-02T17:48:54.420Z,100355.00
2023-05-02T17:50:27.543Z,100361.00
2023-05-02T17:52:00.643Z,100347.00
2023-05-02T17:53:35.258Z,100354.00
2023-05-02T17:55:09.679Z,100363.00
2023-05-02T17:56:43.115Z,100370.00
2023-05-02T17:58:16.250Z,100366.00
2023-05-02T17:59:50.480Z,100373.00
2023-05-02T18:01:23.674Z,100381.00
2023-05-02T18:02:57.150Z,100364.00
2023-05-02T18:04:31.763Z,100375.00
2023-05-02T18:06:05.366Z,100372.00
2023-05-02T18:07:38.570Z,100369.00
2023-05-02T18:09:12.202Z,100369.00
2023-05-02T18:10:45.377Z,100371.00
2023-05-02T18:12:18.761Z,100381.00
2023-05-02T18:13:51.880Z,100380.00
2023-05-02T18:15:25.319Z,100379.00
2023-05-02T18:16:58.762Z,100371.00
2023-05-02T18:18:32.817Z,100367.00
2023-05-02T18:20:09.795Z,100367.00
2023-05-02T18:21:42.927Z,100378.00
2023-05-02T18:23:16.866Z,100367.00
2023-05-02T18:24:50.505Z,100374.00